Time;durP1;ratioP1;P1;durP2;ratioP2;P2;SDS_P1;SDS_P2;PMS_P1;PMS_P2;Temp;Humidity;BMP_temperature;BMP_pressure;BME280_temperature;BME280_humidity;BME280_pressure;Samples;Min_cycle;Max_cycle;Signal;HPM_P1;HPM_P2
2023/09/25 00:02:12;;;;;;;16.42;1.23;;;21.00;99.90;;;;;;5047650;28;20216;-75
2023/09/25 00:04:42;;;;;;;11.07;1.05;;;21.20;99.90;;;;;;5039598;28;20268;-74
2023/09/25 00:07:14;;;;;;;5.15;0.90;;;21.30;99.90;;;;;;5035299;28;20309;-74
2023/09/25 00:09:44;;;;;;;4.75;1.05;;;21.50;99.90;;;;;;5042537;28;20206;-74
2023/09/25 00:12:17;;;;;;;13.85;1.30;;;21.70;99.90;;;;;;5041079;28;20685;-76
2023/09/25 00:14:49;;;;;;;3.25;0.88;;;21.80;99.90;;;;;;5041884;28;20194;-76
2023/09/25 00:17:20;;;;;;;6.88;1.08;;;21.80;99.90;;;;;;5042672;28;20239;-76
2023/09/25 00:19:50;;;;;;;7.00;1.70;;;21.80;99.90;;;;;;5043654;28;20201;-75
2023/09/25 00:22:21;;;;;;;7.72;1.30;;;22.00;99.90;;;;;;5046441;28;20197;-75
2023/09/25 00:24:52;;;;;;;4.32;0.90;;;22.10;99.90;;;;;;5036068;28;20202;-75
2023/09/25 00:27:25;;;;;;;3.65;0.75;;;22.20;99.90;;;;;;5041306;28;20194;-75
2023/09/25 00:29:56;;;;;;;6.03;1.30;;;22.30;99.90;;;;;;5033207;28;20565;-75
2023/09/25 00:32:27;;;;;;;4.32;0.90;;;22.40;99.90;;;;;;5044334;28;20217;-75
2023/09/25 00:34:58;;;;;;;3.25;0.90;;;22.50;99.90;;;;;;5051037;28;20222;-76
2023/09/25 00:37:29;;;;;;;5.57;0.80;;;22.70;99.90;;;;;;5043320;28;20716;-77
2023/09/25 00:40:07;;;;;;;2.15;0.70;;;22.80;99.90;;;;;;5043639;28;20189;-76
2023/09/25 00:42:42;;;;;;;1.92;0.90;;;22.60;99.90;;;;;;5041120;28;20288;-77
2023/09/25 00:45:13;;;;;;;0.95;0.70;;;22.70;99.90;;;;;;5046997;28;20190;-81
2023/09/25 00:47:45;;;;;;;1.80;0.82;;;22.70;99.90;;;;;;5039842;28;20206;-77
2023/09/25 00:50:16;;;;;;;2.30;0.73;;;22.70;99.90;;;;;;5039648;28;20902;-76
2023/09/25 00:52:48;;;;;;;1.83;0.85;;;22.90;99.90;;;;;;5043169;28;20226;-76
2023/09/25 00:55:19;;;;;;;1.95;0.80;;;23.20;99.90;;;;;;5043731;28;20201;-77
2023/09/25 00:57:53;;;;;;;2.88;0.90;;;23.40;99.90;;;;;;5037099;28;20198;-75
2023/09/25 01:00:25;;;;;;;0.95;0.57;;;23.70;99.90;;;;;;5043813;28;20194;-75
2023/09/25 01:02:55;;;;;;;1.63;0.70;;;23.90;99.90;;;;;;5031451;28;20720;-76
2023/09/25 01:05:26;;;;;;;0.75;0.63;;;24.00;99.90;;;;;;5035158;28;20194;-78
2023/09/25 01:07:57;;;;;;;1.65;0.63;;;24.10;99.90;;;;;;5041165;28;20191;-78
2023/09/25 01:10:31;;;;;;;1.17;0.80;;;24.10;99.90;;;;;;5048657;28;20186;-77
2023/09/25 01:13:04;;;;;;;1.73;0.50;;;24.40;99.90;;;;;;5048164;28;20672;-78
2023/09/25 01:15:35;;;;;;;2.28;0.88;;;24.50;99.90;;;;;;5051308;28;20198;-77
2023/09/25 01:18:06;;;;;;;0.88;0.60;;;24.60;99.90;;;;;;5051302;28;20199;-78
2023/09/25 01:20:37;;;;;;;1.85;0.65;;;24.80;99.90;;;;;;5051174;28;20186;-78
2023/09/25 01:23:10;;;;;;;2.33;0.70;;;24.90;99.90;;;;;;5051084;28;20595;-78
2023/09/25 01:25:40;;;;;;;1.60;0.60;;;24.80;99.90;;;;;;5043589;28;20822;-76
2023/09/25 01:28:11;;;;;;;1.58;0.70;;;24.80;99.90;;;;;;5034711;28;20205;-77
2023/09/25 01:30:42;;;;;;;3.10;0.85;;;25.00;99.90;;;;;;5044824;28;20201;-76
2023/09/25 01:33:13;;;;;;;0.93;0.63;;;25.20;99.90;;;;;;5053236;28;20225;-77
2023/09/25 01:35:44;;;;;;;1.50;0.55;;;25.30;99.90;;;;;;5053012;28;20197;-78
2023/09/25 01:38:17;;;;;;;1.77;0.73;;;25.30;99.90;;;;;;5053152;28;20196;-78
2023/09/25 01:40:47;;;;;;;1.30;0.60;;;25.30;99.90;;;;;;5047345;28;20201;-76
2023/09/25 01:43:18;;;;;;;1.55;0.65;;;25.30;99.90;;;;;;5052122;28;20200;-76
2023/09/25 01:45:49;;;;;;;1.13;0.50;;;25.30;99.90;;;;;;5049474;28;20560;-77
2023/09/25 01:48:19;;;;;;;0.45;0.40;;;25.30;99.90;;;;;;5052762;28;20196;-76
2023/09/25 01:50:50;;;;;;;2.45;0.98;;;25.20;99.90;;;;;;5052830;28;20192;-76
2023/09/25 01:53:23;;;;;;;2.13;1.08;;;25.20;99.90;;;;;;5052624;28;20302;-77
2023/09/25 01:55:53;;;;;;;1.85;0.93;;;25.40;99.90;;;;;;5052537;28;20200;-77
2023/09/25 01:58:24;;;;;;;1.50;0.80;;;25.20;99.90;;;;;;5052683;28;20564;-76
2023/09/25 02:00:55;;;;;;;2.60;0.85;;;25.00;99.90;;;;;;5047130;28;20197;-76
2023/09/25 02:03:26;;;;;;;2.88;1.15;;;24.90;99.90;;;;;;5043391;28;20201;-77
2023/09/25 02:06:00;;;;;;;3.95;1.05;;;24.90;99.90;;;;;;5049497;28;20221;-76
2023/09/25 02:08:33;;;;;;;2.20;0.98;;;24.70;99.90;;;;;;5049802;28;20185;-77
2023/09/25 02:11:04;;;;;;;1.45;0.88;;;24.70;99.90;;;;;;5055742;28;20247;-77
2023/09/25 02:13:35;;;;;;;2.65;1.05;;;24.80;99.90;;;;;;5046465;28;20221;-76
2023/09/25 02:16:06;;;;;;;3.20;1.10;;;24.80;99.90;;;;;;5056554;28;20641;-79
2023/09/25 02:18:36;;;;;;;3.75;0.98;;;24.90;99.90;;;;;;5041225;28;20209;-76
2023/09/25 02:21:07;;;;;;;2.88;0.90;;;25.00;99.90;;;;;;5036661;28;20193;-79
2023/09/25 02:23:40;;;;;;;2.10;1.05;;;24.80;99.90;;;;;;5040343;28;20221;-78
2023/09/25 02:26:11;;;;;;;2.13;0.98;;;24.60;99.90;;;;;;5055864;28;20198;-77
2023/09/25 02:28:42;;;;;;;2.65;1.10;;;24.60;99.90;;;;;;5056517;28;20200;-77
2023/09/25 02:31:13;;;;;;;2.33;1.10;;;24.60;99.90;;;;;;5056483;28;20193;-76
2023/09/25 02:33:44;;;;;;;5.93;1.10;;;24.60;99.90;;;;;;5047868;28;20251;-77
2023/09/25 02:36:16;;;;;;;1.83;0.90;;;24.50;99.90;;;;;;5039912;28;20213;-78
2023/09/25 02:38:48;;;;;;;4.82;1.20;;;24.50;99.90;;;;;;5042346;28;20205;-76
2023/09/25 02:41:19;;;;;;;3.47;1.00;;;24.60;99.90;;;;;;5036703;28;20202;-76
2023/09/25 02:43:50;;;;;;;3.08;1.00;;;24.60;99.90;;;;;;5039972;28;20201;-77
2023/09/25 02:46:20;;;;;;;1.95;1.10;;;24.40;99.90;;;;;;5051964;28;20200;-76
2023/09/25 02:48:51;;;;;;;2.58;1.00;;;24.40;99.90;;;;;;5052261;28;20202;-75
2023/09/25 02:51:22;;;;;;;2.05;0.98;;;24.40;99.90;;;;;;5050655;28;20532;-75
2023/09/25 02:53:55;;;;;;;3.83;1.35;;;24.30;99.90;;;;;;5051777;28;20222;-77
2023/09/25 02:56:25;;;;;;;9.48;3.33;;;24.40;99.90;;;;;;5035444;28;20211;-77
2023/09/25 02:58:56;;;;;;;5.40;1.85;;;24.30;99.90;;;;;;5048761;28;20216;-76
2023/09/25 03:01:27;;;;;;;3.95;1.40;;;24.50;99.90;;;;;;5034776;28;20205;-76
2023/09/25 03:03:58;;;;;;;3.90;1.00;;;24.60;99.90;;;;;;5039937;28;20204;-75
2023/09/25 03:06:28;;;;;;;2.78;1.10;;;24.50;99.90;;;;;;5043690;28;20234;-76
2023/09/25 03:09:01;;;;;;;3.15;1.00;;;24.60;99.90;;;;;;5041365;28;20200;-76
2023/09/25 03:11:32;;;;;;;3.25;1.00;;;24.60;99.90;;;;;;5043441;28;20558;-77
2023/09/25 03:14:03;;;;;;;4.03;1.27;;;24.60;99.90;;;;;;5044775;28;20712;-77
2023/09/25 03:16:34;;;;;;;4.93;1.30;;;24.60;99.90;;;;;;5042170;28;20222;-77
2023/09/25 03:19:04;;;;;;;17.08;1.60;;;24.60;99.90;;;;;;5040672;28;20678;-77
2023/09/25 03:21:35;;;;;;;9.57;1.60;;;24.80;99.90;;;;;;5052755;28;20657;-78
2023/09/25 03:24:09;;;;;;;6.63;1.17;;;24.70;99.90;;;;;;5052472;28;20213;-77
2023/09/25 03:26:39;;;;;;;3.80;1.20;;;24.60;99.90;;;;;;5038205;28;20639;-76
2023/09/25 03:29:10;;;;;;;3.75;1.10;;;24.70;99.90;;;;;;5045932;28;20195;-78
2023/09/25 03:31:41;;;;;;;3.95;1.00;;;24.80;99.90;;;;;;5038099;28;20201;-76
2023/09/25 03:34:12;;;;;;;4.22;0.90;;;24.90;99.90;;;;;;5034895;28;20187;-77
2023/09/25 03:36:42;;;;;;;1.52;0.70;;;25.00;99.90;;;;;;5049512;28;20196;-76
2023/09/25 03:39:17;;;;;;;2.85;1.00;;;25.00;99.90;;;;;;5051315;28;20194;-76
2023/09/25 03:41:48;;;;;;;1.58;0.90;;;25.00;99.90;;;;;;5038635;28;20198;-77
2023/09/25 03:44:19;;;;;;;3.25;1.27;;;24.80;99.90;;;;;;5032704;28;20240;-78
2023/09/25 03:46:50;;;;;;;1.83;0.80;;;24.80;99.90;;;;;;5041395;28;20187;-78
2023/09/25 03:49:20;;;;;;;2.65;0.80;;;24.80;99.90;;;;;;5032958;28;20198;-78
2023/09/25 03:51:51;;;;;;;4.05;1.15;;;24.70;99.90;;;;;;5032940;28;20221;-77
2023/09/25 03:54:24;;;;;;;4.03;1.20;;;24.70;99.90;;;;;;5034722;28;20191;-78
2023/09/25 03:56:55;;;;;;;3.35;1.02;;;24.80;99.90;;;;;;5035758;28;20202;-77
2023/09/25 03:59:25;;;;;;;2.88;1.10;;;24.60;99.90;;;;;;5036856;28;20198;-78
2023/09/25 04:01:56;;;;;;;2.55;1.38;;;24.60;99.90;;;;;;5034358;28;20288;-78
2023/09/25 04:04:27;;;;;;;4.25;1.15;;;24.60;99.90;;;;;;5043696;28;20193;-77
2023/09/25 04:06:58;;;;;;;3.55;1.00;;;24.50;99.90;;;;;;5034122;28;20230;-77
2023/09/25 04:09:30;;;;;;;2.22;1.33;;;24.40;99.90;;;;;;5035521;28;20198;-77
2023/09/25 04:12:01;;;;;;;4.20;1.27;;;24.40;99.90;;;;;;5043463;28;20202;-77
2023/09/25 04:14:35;;;;;;;3.92;1.30;;;24.20;99.90;;;;;;5033974;28;20216;-78
2023/09/25 04:17:08;;;;;;;7.10;1.45;;;24.10;99.90;;;;;;5050376;28;20283;-77
2023/09/25 04:19:38;;;;;;;5.70;1.40;;;24.20;99.90;;;;;;5047096;28;20240;-77
2023/09/25 04:22:11;;;;;;;3.10;1.33;;;24.30;99.90;;;;;;5044411;28;20212;-79
2023/09/25 04:24:43;;;;;;;5.07;1.42;;;24.30;99.90;;;;;;5039592;28;20282;-78
2023/09/25 04:27:14;;;;;;;3.42;1.15;;;24.20;99.90;;;;;;5034521;28;20566;-77
2023/09/25 04:29:45;;;;;;;3.58;1.05;;;24.10;99.90;;;;;;5050750;28;20203;-77
2023/09/25 04:32:17;;;;;;;3.90;1.23;;;24.10;99.90;;;;;;5048653;28;20728;-77
2023/09/25 04:34:47;;;;;;;3.47;1.15;;;24.20;99.90;;;;;;5033707;28;20598;-78
2023/09/25 04:37:18;;;;;;;2.90;1.00;;;24.30;99.90;;;;;;5034103;28;20205;-77
2023/09/25 04:39:51;;;;;;;2.90;1.00;;;24.30;99.90;;;;;;5042517;28;20194;-78
2023/09/25 04:42:22;;;;;;;2.80;1.10;;;24.50;99.90;;;;;;5051907;28;20194;-77
2023/09/25 04:44:53;;;;;;;3.38;1.30;;;24.50;99.90;;;;;;5036599;28;20204;-77
2023/09/25 04:47:24;;;;;;;2.85;1.17;;;24.60;99.90;;;;;;5037995;28;20221;-78
2023/09/25 04:49:55;;;;;;;3.78;1.00;;;24.60;99.90;;;;;;5039650;28;20632;-78
2023/09/25 04:52:26;;;;;;;1.95;1.00;;;24.50;99.90;;;;;;5053489;28;20197;-77
2023/09/25 04:54:58;;;;;;;3.17;0.95;;;24.50;99.90;;;;;;5046460;28;20194;-77
2023/09/25 04:57:29;;;;;;;2.63;1.00;;;24.50;99.90;;;;;;5044058;28;20953;-77
2023/09/25 05:00:05;;;;;;;3.13;1.17;;;24.60;99.90;;;;;;5037910;28;20642;-76
2023/09/25 05:02:35;;;;;;;3.95;1.27;;;24.60;99.90;;;;;;5045930;28;20666;-78
2023/09/25 05:05:06;;;;;;;2.53;1.05;;;24.60;99.90;;;;;;5048264;28;20194;-78
2023/09/25 05:07:37;;;;;;;2.00;0.90;;;24.50;99.90;;;;;;5045446;28;20270;-79
2023/09/25 05:10:12;;;;;;;4.70;1.10;;;24.60;99.90;;;;;;5041886;28;20672;-77
2023/09/25 05:12:43;;;;;;;3.53;0.90;;;24.40;99.90;;;;;;5048340;28;20205;-79
2023/09/25 05:15:14;;;;;;;2.17;1.23;;;24.50;99.90;;;;;;5039802;28;20229;-78
2023/09/25 05:17:46;;;;;;;1.73;0.90;;;24.30;99.90;;;;;;5041407;28;20202;-78
2023/09/25 05:20:18;;;;;;;4.18;1.10;;;24.30;99.90;;;;;;5033298;28;20285;-78
2023/09/25 05:22:50;;;;;;;3.58;1.40;;;24.20;99.90;;;;;;5033057;28;20578;-77
2023/09/25 05:25:24;;;;;;;3.85;1.30;;;24.10;99.90;;;;;;5033375;28;20201;-77
2023/09/25 05:27:56;;;;;;;1.55;0.82;;;24.20;99.90;;;;;;5038399;28;20198;-76
2023/09/25 05:30:28;;;;;;;1.70;1.10;;;24.10;99.90;;;;;;5049677;28;20197;-76
2023/09/25 05:32:59;;;;;;;2.88;1.00;;;24.10;99.90;;;;;;5040017;28;20712;-77
2023/09/25 05:35:33;;;;;;;3.70;1.00;;;24.10;99.90;;;;;;5042438;28;20206;-76
2023/09/25 05:38:04;;;;;;;2.35;1.00;;;24.00;99.90;;;;;;5031850;28;20205;-77
2023/09/25 05:40:37;;;;;;;2.13;1.00;;;24.10;99.90;;;;;;5030633;28;20194;-77
2023/09/25 05:43:08;;;;;;;3.08;1.05;;;24.00;99.90;;;;;;5048748;28;20201;-77
2023/09/25 05:45:39;;;;;;;3.45;1.20;;;24.10;99.90;;;;;;5050818;28;20657;-77
2023/09/25 05:48:10;;;;;;;4.40;1.48;;;24.10;99.90;;;;;;5051079;28;20193;-77
2023/09/25 05:50:41;;;;;;;3.10;1.10;;;24.00;99.90;;;;;;5052736;28;20200;-78
2023/09/25 05:53:14;;;;;;;4.28;1.30;;;24.00;99.90;;;;;;5052781;28;20217;-77
2023/09/25 05:55:47;;;;;;;4.28;1.20;;;23.80;99.90;;;;;;5047918;28;20245;-77
2023/09/25 05:58:18;;;;;;;3.38;1.42;;;23.80;99.90;;;;;;5036331;28;20205;-76
2023/09/25 06:00:49;;;;;;;5.13;1.10;;;23.60;99.90;;;;;;5041611;28;20649;-77
2023/09/25 06:03:20;;;;;;;2.08;1.10;;;23.50;99.90;;;;;;5050476;28;20229;-77
2023/09/25 06:05:51;;;;;;;2.55;1.10;;;23.30;99.90;;;;;;5050645;28;20240;-77
2023/09/25 06:08:21;;;;;;;3.28;1.00;;;23.20;99.90;;;;;;5052814;28;20194;-77
2023/09/25 06:11:03;;;;;;;3.50;1.05;;;23.00;99.90;;;;;;5047137;28;20212;-78
2023/09/25 06:13:34;;;;;;;4.32;0.90;;;22.80;99.90;;;;;;5043680;28;20210;-78
2023/09/25 06:16:05;;;;;;;3.70;1.35;;;22.60;99.90;;;;;;5052585;28;20273;-77
2023/09/25 06:18:36;;;;;;;3.38;1.27;;;22.50;99.90;;;;;;5033744;28;20228;-77
2023/09/25 06:21:08;;;;;;;4.40;1.30;;;22.50;99.90;;;;;;5041291;28;20198;-78
2023/09/25 06:23:38;;;;;;;3.22;1.33;;;22.50;99.90;;;;;;5045648;28;20197;-78
2023/09/25 06:26:11;;;;;;;3.05;1.60;;;22.60;99.90;;;;;;5048219;28;20251;-78
2023/09/25 06:28:42;;;;;;;2.63;1.08;;;22.60;99.90;;;;;;5050245;28;20232;-77
2023/09/25 06:31:13;;;;;;;2.90;1.17;;;22.70;99.90;;;;;;5052596;28;20201;-77
2023/09/25 06:33:44;;;;;;;4.85;1.40;;;22.60;99.90;;;;;;5052581;28;20271;-78
2023/09/25 06:36:14;;;;;;;3.67;1.20;;;22.50;99.90;;;;;;5052652;28;20190;-78
2023/09/25 06:38:45;;;;;;;3.55;1.27;;;22.40;99.90;;;;;;5037792;28;20198;-78
2023/09/25 06:41:18;;;;;;;3.28;1.10;;;22.30;99.90;;;;;;5032556;28;20201;-78
2023/09/25 06:43:49;;;;;;;3.17;1.30;;;22.20;99.90;;;;;;5036701;28;20649;-78
2023/09/25 06:46:20;;;;;;;7.15;1.25;;;22.20;99.90;;;;;;5053279;28;20185;-78
2023/09/25 06:48:51;;;;;;;6.32;1.58;;;22.10;99.90;;;;;;5046458;28;20204;-77
2023/09/25 06:51:22;;;;;;;3.83;1.23;;;22.00;99.90;;;;;;5038859;28;20194;-77
2023/09/25 06:53:53;;;;;;;4.25;1.27;;;21.90;99.90;;;;;;5050218;28;20581;-78
2023/09/25 06:56:27;;;;;;;3.90;1.50;;;21.80;99.90;;;;;;5035814;28;20209;-77
2023/09/25 06:58:58;;;;;;;4.57;1.80;;;21.60;99.90;;;;;;5036908;28;20201;-77
2023/09/25 07:01:30;;;;;;;2.88;1.25;;;21.50;99.90;;;;;;5040730;28;20217;-77
2023/09/25 07:04:00;;;;;;;4.20;1.30;;;21.40;99.90;;;;;;5045574;28;20190;-78
2023/09/25 07:06:33;;;;;;;4.57;1.20;;;21.30;99.90;;;;;;5035607;28;20701;-78
2023/09/25 07:09:08;;;;;;;6.03;1.13;;;21.20;99.90;;;;;;5053995;28;20189;-79
2023/09/25 07:11:41;;;;;;;6.18;1.42;;;21.10;99.90;;;;;;5043972;28;20196;-77
2023/09/25 07:14:12;;;;;;;8.55;1.20;;;21.10;99.90;;;;;;5042960;28;20240;-77
2023/09/25 07:16:43;;;;;;;6.40;1.30;;;21.10;99.90;;;;;;5040807;28;20213;-77
2023/09/25 07:19:14;;;;;;;6.15;1.38;;;21.10;99.90;;;;;;5042373;28;20202;-77
2023/09/25 07:21:44;;;;;;;3.45;1.20;;;21.10;99.90;;;;;;5040743;28;20215;-78
2023/09/25 07:24:15;;;;;;;4.00;1.00;;;21.00;99.90;;;;;;5041107;28;20213;-78
2023/09/25 07:26:48;;;;;;;2.10;1.00;;;20.90;99.90;;;;;;5044932;28;20243;-78
2023/09/25 07:29:19;;;;;;;3.05;0.98;;;20.90;99.90;;;;;;5036981;28;20222;-77
2023/09/25 07:31:51;;;;;;;3.47;1.50;;;20.80;99.90;;;;;;5041982;28;20194;-78
2023/09/25 07:34:23;;;;;;;2.58;0.90;;;20.70;99.90;;;;;;5052599;28;20743;-77
2023/09/25 07:36:53;;;;;;;4.32;1.08;;;20.70;99.90;;;;;;5054116;28;20267;-77
2023/09/25 07:39:24;;;;;;;2.80;1.00;;;20.60;99.90;;;;;;5037912;28;20530;-77
2023/09/25 07:41:57;;;;;;;2.60;0.98;;;20.60;99.90;;;;;;5044068;28;20600;-78
2023/09/25 07:44:27;;;;;;;2.75;1.00;;;20.50;99.90;;;;;;5036656;28;20194;-77
2023/09/25 07:46:59;;;;;;;4.13;1.00;;;20.50;99.90;;;;;;5047708;28;20252;-77
2023/09/25 07:49:30;;;;;;;4.95;1.33;;;20.50;99.90;;;;;;5033751;28;20638;-77
2023/09/25 07:52:04;;;;;;;4.70;0.93;;;20.40;99.90;;;;;;5044024;28;20208;-77
2023/09/25 07:54:34;;;;;;;3.88;1.20;;;20.40;99.90;;;;;;5045132;28;20209;-77
2023/09/25 07:57:09;;;;;;;3.58;0.98;;;20.30;99.90;;;;;;5043871;28;20213;-77
2023/09/25 07:59:40;;;;;;;3.13;1.15;;;20.30;99.90;;;;;;5035739;28;20194;-77
2023/09/25 08:02:15;;;;;;;5.43;1.05;;;20.20;99.90;;;;;;5042444;28;20194;-77
2023/09/25 08:04:47;;;;;;;5.05;1.15;;;20.10;99.90;;;;;;5042554;28;20248;-77
2023/09/25 08:07:18;;;;;;;3.47;1.20;;;20.10;99.90;;;;;;5035381;28;20752;-77
2023/09/25 08:09:49;;;;;;;4.10;1.25;;;20.00;99.90;;;;;;5043301;28;20197;-77
2023/09/25 08:12:22;;;;;;;3.40;1.00;;;20.00;99.90;;;;;;5043503;28;20662;-77
2023/09/25 08:14:52;;;;;;;6.90;1.30;;;19.90;99.90;;;;;;5042217;28;20246;-77
2023/09/25 08:17:23;;;;;;;6.20;1.40;;;19.90;99.90;;;;;;5042688;28;20204;-77
2023/09/25 08:19:57;;;;;;;4.85;1.23;;;19.90;99.90;;;;;;5034450;28;20197;-77
2023/09/25 08:22:28;;;;;;;5.70;1.90;;;19.80;99.90;;;;;;5037531;28;20201;-77
2023/09/25 08:24:58;;;;;;;5.30;1.30;;;19.80;99.90;;;;;;5042423;28;20198;-77
2023/09/25 08:27:31;;;;;;;4.85;1.23;;;19.70;99.90;;;;;;5043560;28;20225;-77
2023/09/25 08:30:02;;;;;;;3.53;1.20;;;19.70;99.90;;;;;;5034289;28;20191;-77
2023/09/25 08:32:33;;;;;;;3.25;1.20;;;19.60;99.90;;;;;;5037525;28;20265;-76
2023/09/25 08:35:04;;;;;;;3.72;1.48;;;19.60;99.90;;;;;;5053652;28;20225;-76
2023/09/25 08:37:35;;;;;;;6.28;1.50;;;19.50;99.90;;;;;;5033115;28;20244;-76
2023/09/25 08:40:07;;;;;;;4.25;1.30;;;19.50;99.90;;;;;;5060050;28;20212;-76
2023/09/25 08:42:39;;;;;;;2.47;1.10;;;19.50;99.90;;;;;;5064331;28;20186;-77
2023/09/25 08:45:11;;;;;;;5.50;1.30;;;19.40;99.90;;;;;;5049752;28;20209;-77
2023/09/25 08:47:43;;;;;;;4.43;1.35;;;19.30;99.90;;;;;;5031801;28;20210;-77
2023/09/25 08:50:14;;;;;;;5.50;1.20;;;19.30;99.90;;;;;;5035545;28;20191;-76
2023/09/25 08:52:46;;;;;;;2.67;1.10;;;19.30;99.90;;;;;;5053256;28;20197;-77
2023/09/25 08:55:16;;;;;;;5.40;1.35;;;19.30;99.90;;;;;;5052187;28;20222;-77
2023/09/25 08:57:49;;;;;;;3.35;1.45;;;19.20;99.90;;;;;;5063208;28;20289;-77
2023/09/25 09:00:20;;;;;;;5.68;1.23;;;19.20;99.90;;;;;;5034037;28;20212;-77
2023/09/25 09:02:51;;;;;;;4.78;1.45;;;19.20;99.90;;;;;;5042061;28;20200;-77
2023/09/25 09:05:23;;;;;;;7.28;1.60;;;19.20;99.90;;;;;;5036836;28;20193;-77
2023/09/25 09:08:03;;;;;;;4.57;1.30;;;19.20;99.90;;;;;;5035626;28;20198;-76
2023/09/25 09:10:34;;;;;;;4.35;1.70;;;19.20;99.90;;;;;;5062745;28;20197;-76
2023/09/25 09:13:10;;;;;;;3.95;1.50;;;19.20;99.90;;;;;;5048605;28;20209;-76
2023/09/25 09:15:42;;;;;;;3.92;1.50;;;19.20;99.90;;;;;;5032728;28;20547;-77
2023/09/25 09:18:23;;;;;;;12.82;1.88;;;19.10;99.90;;;;;;5036189;28;20199;-77
2023/09/25 09:20:54;;;;;;;5.55;1.40;;;19.10;99.90;;;;;;5041558;28;20281;-77
2023/09/25 09:23:41;;;;;;;4.25;1.45;;;19.10;99.90;;;;;;5049879;28;20194;-77
2023/09/25 09:26:14;;;;;;;5.90;1.23;;;19.10;99.90;;;;;;5050830;28;20611;-76
2023/09/25 09:28:48;;;;;;;7.28;1.40;;;19.10;99.90;;;;;;5052442;28;20233;-76
2023/09/25 09:31:19;;;;;;;6.18;1.48;;;19.00;99.90;;;;;;5042389;28;20260;-76
2023/09/25 09:33:50;;;;;;;4.63;1.30;;;19.10;99.90;;;;;;5035882;28;20245;-76
2023/09/25 09:36:23;;;;;;;5.13;1.50;;;19.00;99.90;;;;;;5044327;28;20668;-76
2023/09/25 09:38:55;;;;;;;7.35;1.70;;;19.00;99.90;;;;;;5052300;28;20200;-76
2023/09/25 09:41:26;;;;;;;6.50;2.00;;;19.00;99.90;;;;;;5043040;28;20271;-76
2023/09/25 09:44:00;;;;;;;5.93;1.80;;;19.00;99.90;;;;;;5051386;28;20204;-76
2023/09/25 09:46:32;;;;;;;4.88;1.60;;;18.90;99.90;;;;;;5046913;28;20194;-76
2023/09/25 09:49:04;;;;;;;3.70;1.42;;;18.90;99.90;;;;;;5035036;28;20206;-77
2023/09/25 09:51:35;;;;;;;4.53;1.50;;;18.90;99.90;;;;;;5037448;28;20212;-77
2023/09/25 09:54:07;;;;;;;3.72;1.40;;;18.90;99.90;;;;;;5051304;28;20209;-77
2023/09/25 09:56:39;;;;;;;4.13;1.23;;;18.90;99.90;;;;;;5045133;28;20194;-77
2023/09/25 09:59:12;;;;;;;5.55;1.50;;;18.90;99.90;;;;;;5048255;28;20204;-77
2023/09/25 10:01:46;;;;;;;6.47;1.85;;;18.80;99.90;;;;;;5038855;28;20198;-77
2023/09/25 10:04:18;;;;;;;5.78;1.30;;;18.80;99.90;;;;;;5041334;28;20661;-77
2023/09/25 10:06:53;;;;;;;3.72;1.27;;;18.80;99.90;;;;;;5049838;28;20638;-77
2023/09/25 10:09:24;;;;;;;3.92;1.48;;;18.80;99.90;;;;;;5052585;28;20197;-77
2023/09/25 10:11:56;;;;;;;4.82;1.02;;;18.80;99.90;;;;;;5043435;28;20197;-77
2023/09/25 10:14:30;;;;;;;3.13;1.30;;;18.70;99.90;;;;;;5034354;28;20266;-77
2023/09/25 10:17:05;;;;;;;2.35;1.00;;;18.80;99.90;;;;;;5044121;28;20255;-77
2023/09/25 10:19:55;;;;;;;7.32;1.20;;;18.70;99.90;;;;;;5031557;28;20194;-77
2023/09/25 10:22:30;;;;;;;4.13;1.38;;;18.70;99.90;;;;;;5042012;28;20845;-77
2023/09/25 10:25:06;;;;;;;3.97;1.30;;;18.70;99.90;;;;;;5041811;28;20212;-77
2023/09/25 10:27:39;;;;;;;3.80;1.30;;;18.70;99.90;;;;;;5045296;28;20218;-77
2023/09/25 10:30:14;;;;;;;5.13;1.20;;;18.70;99.90;;;;;;5050336;28;20224;-76
2023/09/25 10:32:51;;;;;;;2.17;1.30;;;18.70;99.90;;;;;;5048130;28;20197;-76
2023/09/25 10:35:42;;;;;;;3.17;1.25;;;18.70;99.90;;;;;;5051946;28;20218;-77
2023/09/25 10:38:15;;;;;;;6.78;1.33;;;18.70;99.90;;;;;;5051580;28;20239;-77
2023/09/25 10:40:50;;;;;;;5.80;1.17;;;18.60;99.90;;;;;;5049013;28;20209;-77
2023/09/25 10:43:22;;;;;;;4.45;1.30;;;18.60;99.90;;;;;;5042718;28;20205;-76
2023/09/25 10:45:56;;;;;;;6.32;1.70;;;18.60;99.90;;;;;;5054078;28;20209;-76
2023/09/25 10:48:28;;;;;;;5.03;1.42;;;18.60;99.90;;;;;;5049139;28;20194;-76
2023/09/25 10:50:59;;;;;;;5.57;1.52;;;18.40;99.90;;;;;;5048912;28;20654;-76
2023/09/25 10:53:30;;;;;;;8.23;1.77;;;18.40;99.90;;;;;;5039875;28;20685;-77
2023/09/25 10:56:01;;;;;;;6.80;1.90;;;18.30;99.90;;;;;;5049478;28;20708;-76
2023/09/25 10:58:32;;;;;;;7.40;1.70;;;18.30;99.90;;;;;;5044348;28;20201;-77
2023/09/25 11:01:04;;;;;;;4.43;1.60;;;18.30;99.90;;;;;;5048426;28;20566;-77
2023/09/25 11:03:37;;;;;;;3.80;1.40;;;18.30;99.90;;;;;;5036173;28;20190;-77
2023/09/25 11:06:09;;;;;;;4.85;1.52;;;18.20;99.90;;;;;;5048416;28;20237;-77
2023/09/25 11:08:40;;;;;;;5.70;1.27;;;18.20;99.90;;;;;;5035904;28;20720;-76
2023/09/25 11:11:14;;;;;;;3.47;1.10;;;18.10;99.90;;;;;;5040137;28;20198;-76
2023/09/25 11:13:44;;;;;;;6.38;1.38;;;18.10;99.90;;;;;;5045901;28;20206;-77
2023/09/25 11:16:17;;;;;;;3.70;1.40;;;18.10;99.90;;;;;;5052547;28;20584;-76
2023/09/25 11:18:48;;;;;;;5.28;1.17;;;18.00;99.90;;;;;;5039180;28;20201;-77
2023/09/25 11:21:19;;;;;;;4.82;1.42;;;18.00;99.90;;;;;;5051606;28;20538;-76
2023/09/25 11:23:51;;;;;;;2.88;1.27;;;18.00;99.90;;;;;;5040894;28;20190;-76
2023/09/25 11:26:27;;;;;;;5.15;1.27;;;18.00;99.90;;;;;;5054319;28;20208;-76
2023/09/25 11:28:58;;;;;;;5.32;1.40;;;18.00;99.90;;;;;;5055079;28;20228;-76
2023/09/25 11:31:32;;;;;;;4.15;1.30;;;17.90;99.90;;;;;;5051943;28;20198;-76
2023/09/25 11:34:03;;;;;;;6.55;1.83;;;17.90;99.90;;;;;;5045941;28;20666;-77
2023/09/25 11:36:34;;;;;;;4.45;1.40;;;17.90;99.90;;;;;;5040276;28;20225;-76
2023/09/25 11:39:14;;;;;;;5.20;1.40;;;17.90;99.90;;;;;;5040995;28;20197;-76
2023/09/25 11:41:45;;;;;;;4.93;1.27;;;17.90;99.90;;;;;;5038788;28;20240;-77
2023/09/25 11:44:16;;;;;;;3.78;1.25;;;17.80;99.90;;;;;;5038076;28;20200;-76
2023/09/25 11:46:49;;;;;;;4.40;1.50;;;17.80;99.90;;;;;;5044578;28;20201;-77
2023/09/25 11:49:20;;;;;;;7.10;1.50;;;17.80;99.90;;;;;;5045925;28;20208;-76
2023/09/25 11:51:50;;;;;;;5.32;1.40;;;17.70;99.90;;;;;;5046957;28;20200;-76
2023/09/25 11:54:21;;;;;;;6.20;1.55;;;17.70;99.90;;;;;;5045069;28;20206;-77
2023/09/25 11:56:52;;;;;;;5.43;1.80;;;17.70;99.90;;;;;;5043061;28;20212;-77
2023/09/25 11:59:26;;;;;;;6.22;1.45;;;17.70;99.90;;;;;;5047653;28;20215;-77
2023/09/25 12:02:00;;;;;;;6.22;1.70;;;17.60;99.90;;;;;;5038865;28;20596;-76
2023/09/25 12:04:30;;;;;;;6.95;2.00;;;17.60;99.90;;;;;;5040889;28;20653;-77
2023/09/25 12:07:01;;;;;;;8.02;2.10;;;17.60;99.90;;;;;;5037156;28;20229;-76
2023/09/25 12:09:32;;;;;;;7.32;2.22;;;17.60;99.90;;;;;;5042159;28;20198;-77
2023/09/25 12:12:03;;;;;;;7.53;2.15;;;17.60;99.90;;;;;;5046461;28;20204;-77
2023/09/25 12:14:34;;;;;;;9.23;2.70;;;17.60;99.90;;;;;;5038470;28;20181;-76
2023/09/25 12:17:07;;;;;;;4.85;2.35;;;17.60;99.90;;;;;;5038812;28;20198;-76
2023/09/25 12:19:38;;;;;;;6.80;2.20;;;17.60;99.90;;;;;;5046841;28;20209;-76
2023/09/25 12:22:10;;;;;;;7.75;2.15;;;17.60;99.90;;;;;;5054419;28;20185;-76
2023/09/25 12:24:40;;;;;;;9.10;2.30;;;17.60;99.90;;;;;;5047911;28;20190;-76
2023/09/25 12:27:11;;;;;;;5.38;1.70;;;17.50;99.90;;;;;;5045913;28;20274;-77
2023/09/25 12:29:43;;;;;;;3.35;1.50;;;17.40;99.90;;;;;;5036778;28;20284;-76
2023/09/25 12:32:16;;;;;;;3.58;1.70;;;17.40;99.90;;;;;;5036166;28;20281;-76
2023/09/25 12:34:47;;;;;;;3.50;1.60;;;17.40;99.90;;;;;;5039695;28;20194;-76
2023/09/25 12:37:18;;;;;;;3.97;1.67;;;17.30;99.90;;;;;;5047310;28;20197;-76
2023/09/25 12:39:49;;;;;;;4.35;1.80;;;17.30;99.90;;;;;;5053804;28;20186;-76
2023/09/25 12:42:21;;;;;;;3.17;1.40;;;17.30;99.90;;;;;;5046315;28;20607;-76
2023/09/25 12:44:52;;;;;;;4.38;1.40;;;17.30;99.90;;;;;;5040946;28;20927;-76
2023/09/25 12:47:27;;;;;;;5.15;2.05;;;17.20;99.90;;;;;;5036730;28;20272;-77
2023/09/25 12:49:58;;;;;;;5.00;1.58;;;17.10;99.90;;;;;;5044375;28;20243;-77
2023/09/25 12:52:30;;;;;;;3.45;1.55;;;17.10;99.90;;;;;;5045340;28;20251;-76
2023/09/25 12:55:03;;;;;;;3.78;1.63;;;17.00;99.90;;;;;;5054064;28;20232;-76
2023/09/25 12:57:33;;;;;;;4.07;1.45;;;17.00;99.90;;;;;;5044817;28;20281;-76
2023/09/25 13:00:05;;;;;;;3.15;1.70;;;17.00;99.90;;;;;;5053747;28;20558;-77
2023/09/25 13:02:38;;;;;;;3.30;1.50;;;17.00;99.90;;;;;;5046685;28;20186;-76
2023/09/25 13:05:10;;;;;;;1.92;1.48;;;17.00;99.90;;;;;;5039355;28;20221;-76
2023/09/25 13:07:41;;;;;;;3.83;1.48;;;17.00;99.90;;;;;;5037916;28;20313;-77
2023/09/25 13:10:15;;;;;;;6.20;1.70;;;17.00;99.90;;;;;;5048150;28;20194;-77